Time;durP1;ratioP1;P1;durP2;ratioP2;P2;SDS_P1;SDS_P2;PMS_P1;PMS_P2;Temp;Humidity;BMP_temperature;BMP_pressure;BME280_temperature;BME280_humidity;BME280_pressure;Samples;Min_cycle;Max_cycle;Signal;HPM_P1;HPM_P2
2024/01/22 00:00:51;;;;;;;41.15;26.98;;;;;;;-2.98;100.00;97423.16;5068594;28;20067;-67
2024/01/22 00:03:17;;;;;;;30.20;22.15;;;;;;;-3.00;100.00;97413.72;5071479;28;20032;-67
2024/01/22 00:05:43;;;;;;;33.33;21.88;;;;;;;-2.99;100.00;97412.84;5055695;28;20413;-67
2024/01/22 00:08:09;;;;;;;41.58;24.90;;;;;;;-2.98;100.00;97402.53;5068908;28;20024;-67
2024/01/22 00:10:35;;;;;;;60.40;35.85;;;;;;;-3.00;100.00;97396.53;5072075;28;20030;-67
2024/01/22 00:13:00;;;;;;;79.95;52.53;;;;;;;-2.99;100.00;97395.66;5066687;28;20032;-67
2024/01/22 00:15:26;;;;;;;62.15;41.72;;;;;;;-2.97;100.00;97396.50;5069550;28;20025;-67
2024/01/22 00:17:51;;;;;;;64.07;44.47;;;;;;;-3.00;100.00;97391.38;5072395;28;20025;-67
2024/01/22 00:20:17;;;;;;;46.20;33.17;;;;;;;-3.05;100.00;97388.84;5067456;28;20212;-68
2024/01/22 00:22:42;;;;;;;31.55;22.08;;;;;;;-3.09;100.00;97389.78;5060935;28;20029;-67
2024/01/22 00:25:08;;;;;;;30.50;20.48;;;;;;;-3.08;100.00;97382.88;5069671;28;20706;-67
2024/01/22 00:27:33;;;;;;;21.38;16.33;;;;;;;-3.05;100.00;97375.09;5070984;28;20031;-67
2024/01/22 00:29:59;;;;;;;27.35;20.27;;;;;;;-3.02;100.00;97377.66;5068220;28;20089;-67
2024/01/22 00:32:24;;;;;;;26.20;18.95;;;;;;;-2.97;100.00;97368.16;5064520;28;20028;-68
2024/01/22 00:34:50;;;;;;;25.13;18.38;;;;;;;-2.97;100.00;97368.16;5066780;28;20029;-67
2024/01/22 00:37:15;;;;;;;39.78;27.30;;;;;;;-2.97;100.00;97360.44;5067393;28;20105;-67
2024/01/22 00:39:40;;;;;;;28.58;20.48;;;;;;;-3.05;100.00;97364.81;5057402;28;20028;-67
2024/01/22 00:42:06;;;;;;;31.83;21.92;;;;;;;-3.11;100.00;97362.31;5071444;28;20105;-67
2024/01/22 00:44:31;;;;;;;23.13;17.85;;;;;;;-3.12;100.00;97360.59;5059370;28;20060;-67
2024/01/22 00:46:57;;;;;;;18.98;14.45;;;;;;;-3.12;100.00;97364.00;5071798;28;20021;-67
2024/01/22 00:49:22;;;;;;;17.05;13.88;;;;;;;-3.10;100.00;97371.72;5063372;28;20028;-67
2024/01/22 00:51:47;;;;;;;20.10;15.60;;;;;;;-3.04;100.00;97379.38;5058102;28;20025;-67
2024/01/22 00:54:13;;;;;;;17.88;15.77;;;;;;;-3.07;100.00;97379.44;5071757;28;20050;-68
2024/01/22 00:56:38;;;;;;;21.88;17.33;;;;;;;-3.14;100.00;97391.50;5067647;28;20457;-67
2024/01/22 00:59:03;;;;;;;22.08;17.52;;;;;;;-3.19;100.00;97386.44;5071413;28;20088;-67
2024/01/22 01:01:32;;;;;;;21.52;15.60;;;;;;;-3.18;100.00;97392.44;5072208;28;20497;-67
2024/01/22 01:03:57;;;;;;;21.55;15.18;;;;;;;-3.16;100.00;97390.69;5062568;28;20028;-67
2024/01/22 01:06:23;;;;;;;17.95;14.73;;;;;;;-3.19;100.00;97380.41;5068037;28;20035;-68
2024/01/22 01:08:49;;;;;;;16.85;14.30;;;;;;;-3.19;100.00;97386.44;5069321;28;20035;-67
2024/01/22 01:11:14;;;;;;;17.85;15.00;;;;;;;-3.20;100.00;97384.72;5072170;28;20116;-67
2024/01/22 01:13:40;;;;;;;15.45;13.57;;;;;;;-3.21;100.00;97372.69;5065174;28;20056;-67
2024/01/22 01:16:06;;;;;;;13.45;8.85;;;;;;;-3.21;100.00;97362.38;5071660;28;20436;-67
2024/01/22 01:18:31;;;;;;;9.70;8.63;;;;;;;-3.22;100.00;97352.09;5064545;28;20123;-67
2024/01/22 01:20:56;;;;;;;13.02;10.02;;;;;;;-3.22;100.00;97334.06;5070663;28;20067;-67
2024/01/22 01:23:22;;;;;;;17.45;15.50;;;;;;;-3.19;100.00;97332.31;5071983;28;20396;-67
2024/01/22 01:25:47;;;;;;;15.63;13.57;;;;;;;-3.13;100.00;97330.53;5076194;28;20031;-67
2024/01/22 01:28:13;;;;;;;16.52;14.60;;;;;;;-3.09;100.00;97316.75;5064208;28;20016;-67
2024/01/22 01:30:38;;;;;;;15.88;13.73;;;;;;;-3.14;100.00;97316.78;5072360;28;20272;-67
2024/01/22 01:33:04;;;;;;;14.73;12.43;;;;;;;-3.16;100.00;97300.50;5068904;28;20500;-67
2024/01/22 01:35:29;;;;;;;14.05;11.80;;;;;;;-3.13;100.00;97297.03;5071275;28;20038;-67
2024/01/22 01:37:55;;;;;;;13.88;12.07;;;;;;;-3.10;100.00;97297.84;5072477;28;20115;-67
2024/01/22 01:40:20;;;;;;;13.82;11.75;;;;;;;-3.09;100.00;97285.81;5068765;28;20036;-67
2024/01/22 01:42:46;;;;;;;14.65;11.82;;;;;;;-3.09;100.00;97273.81;5073586;28;20539;-67
2024/01/22 01:45:14;;;;;;;12.63;10.55;;;;;;;-3.05;100.00;97259.13;5066550;28;20052;-67
2024/01/22 01:47:47;;;;;;;15.93;11.70;;;;;;;-3.12;100.00;97258.34;5069944;28;20036;-67
2024/01/22 01:50:14;;;;;;;12.88;11.02;;;;;;;-3.11;100.00;97256.66;5069685;28;20024;-67
2024/01/22 01:52:39;;;;;;;12.00;10.80;;;;;;;-3.10;100.00;97245.47;5063435;28;20047;-67
2024/01/22 01:55:07;;;;;;;13.23;11.27;;;;;;;-3.13;100.00;97253.25;5071241;28;20024;-67
2024/01/22 01:57:35;;;;;;;11.88;10.70;;;;;;;-3.18;100.00;97249.00;5075339;28;20039;-67
2024/01/22 02:00:03;;;;;;;12.48;11.02;;;;;;;-3.22;100.00;97261.94;5063920;28;20111;-67
2024/01/22 02:02:28;;;;;;;9.95;8.95;;;;;;;-3.20;100.00;97268.78;5068548;28;20029;-67
2024/01/22 02:04:54;;;;;;;12.32;10.23;;;;;;;-3.24;100.00;97272.25;5072654;28;20039;-67
2024/01/22 02:07:19;;;;;;;14.18;11.00;;;;;;;-3.25;100.00;97282.59;5068675;28;20047;-67
2024/01/22 02:09:49;;;;;;;14.13;10.23;;;;;;;-3.23;100.00;97283.41;5068118;28;20025;-67
2024/01/22 02:12:16;;;;;;;14.50;12.45;;;;;;;-3.24;100.00;97287.69;5067072;28;20429;-67
2024/01/22 02:14:41;;;;;;;13.77;10.43;;;;;;;-3.15;100.00;97291.91;5074185;28;20381;-67
2024/01/22 02:17:07;;;;;;;11.35;9.60;;;;;;;-3.12;100.00;97298.75;5070071;28;20089;-67
2024/01/22 02:19:32;;;;;;;17.38;10.32;;;;;;;-3.10;100.00;97294.44;5073815;28;20027;-67
2024/01/22 02:21:58;;;;;;;11.43;8.70;;;;;;;-3.21;100.00;97281.69;5066527;28;20516;-67
2024/01/22 02:24:23;;;;;;;11.60;9.48;;;;;;;-3.23;100.00;97291.97;5064771;28;20032;-67
2024/01/22 02:26:48;;;;;;;11.23;8.32;;;;;;;-3.19;100.00;97287.66;5069220;28;20562;-67
2024/01/22 02:29:14;;;;;;;11.20;8.13;;;;;;;-3.15;100.00;97291.91;5071871;28;20027;-67
2024/01/22 02:31:39;;;;;;;9.35;8.00;;;;;;;-3.11;100.00;97290.16;5067050;28;20038;-67
2024/01/22 02:34:05;;;;;;;11.30;8.40;;;;;;;-3.09;100.00;97290.97;5066072;28;20029;-67
2024/01/22 02:36:30;;;;;;;12.90;8.43;;;;;;;-3.05;100.00;97292.63;5063085;28;20059;-67
2024/01/22 02:38:55;;;;;;;10.20;8.57;;;;;;;-3.02;100.00;97279.72;5069710;28;20031;-67
2024/01/22 02:41:21;;;;;;;9.98;7.85;;;;;;;-3.07;100.00;97279.78;5074235;28;20058;-68
2024/01/22 02:43:46;;;;;;;10.50;8.82;;;;;;;-3.09;100.00;97273.81;5070885;28;20029;-67
2024/01/22 02:46:12;;;;;;;9.50;7.47;;;;;;;-3.00;100.00;97283.13;5066668;28;20060;-67
2024/01/22 02:48:37;;;;;;;9.80;8.70;;;;;;;-3.01;100.00;97273.69;5072749;28;20029;-67
2024/01/22 02:51:10;;;;;;;11.00;8.65;;;;;;;-3.05;100.00;97272.03;5061939;28;20028;-67
2024/01/22 02:53:36;;;;;;;10.63;8.25;;;;;;;-3.11;100.00;97274.69;5070941;28;20073;-67
2024/01/22 02:56:02;;;;;;;10.95;8.75;;;;;;;-3.14;100.00;97283.28;5066082;28;20043;-67
2024/01/22 02:58:29;;;;;;;8.60;7.25;;;;;;;-3.14;100.00;97285.03;5068821;28;20024;-67
2024/01/22 03:00:54;;;;;;;10.32;7.97;;;;;;;-3.16;100.00;97285.03;5065945;28;20089;-67
2024/01/22 03:03:19;;;;;;;11.35;8.65;;;;;;;-3.13;100.00;97291.91;5071418;28;20036;-67
2024/01/22 03:05:45;;;;;;;11.52;7.95;;;;;;;-3.03;100.00;97285.75;5073732;28;20037;-67
2024/01/22 03:08:10;;;;;;;7.90;7.10;;;;;;;-3.08;100.00;97277.22;5067250;28;20040;-67
2024/01/22 03:10:36;;;;;;;8.15;7.35;;;;;;;-3.11;100.00;97279.84;5068882;28;20116;-67
2024/01/22 03:13:01;;;;;;;7.72;6.95;;;;;;;-3.12;100.00;97280.72;5061734;28;20037;-67
2024/01/22 03:15:26;;;;;;;7.03;6.07;;;;;;;-3.15;100.00;97276.44;5070388;28;20509;-67
2024/01/22 03:17:52;;;;;;;7.78;6.63;;;;;;;-3.15;100.00;97273.03;5067944;28;20031;-67
2024/01/22 03:20:17;;;;;;;6.75;6.05;;;;;;;-3.14;100.00;97277.31;5070748;28;20550;-67
2024/01/22 03:22:43;;;;;;;7.57;6.85;;;;;;;-3.18;100.00;97273.91;5069773;28;20040;-67
2024/01/22 03:25:08;;;;;;;7.55;6.55;;;;;;;-3.21;100.00;97267.06;5070920;28;20028;-67
2024/01/22 03:27:34;;;;;;;6.65;6.05;;;;;;;-3.23;100.00;97273.94;5068810;28;20039;-67
2024/01/22 03:29:59;;;;;;;6.13;5.57;;;;;;;-3.25;100.00;97267.97;5074035;28;20029;-67
2024/01/22 03:32:27;;;;;;;6.25;5.65;;;;;;;-3.24;100.00;97268.84;5066264;28;20025;-67
2024/01/22 03:34:52;;;;;;;5.65;5.15;;;;;;;-3.24;100.00;97250.81;5063950;28;20044;-67
2024/01/22 03:37:18;;;;;;;5.43;4.90;;;;;;;-3.27;100.00;97243.94;5067489;28;20385;-67
2024/01/22 03:39:43;;;;;;;5.65;5.25;;;;;;;-3.25;100.00;97237.06;5077365;28;20044;-67
2024/01/22 03:42:11;;;;;;;6.68;5.57;;;;;;;-3.27;100.00;97233.66;5071889;28;20097;-67
2024/01/22 03:44:37;;;;;;;6.20;5.68;;;;;;;-3.28;100.00;97225.94;5064733;28;20032;-67
2024/01/22 03:47:03;;;;;;;5.32;4.82;;;;;;;-3.29;100.00;97225.09;5064196;28;20688;-67
2024/01/22 03:49:28;;;;;;;5.10;4.70;;;;;;;-3.32;100.00;97217.41;5067802;28;20028;-67
2024/01/22 03:51:54;;;;;;;4.95;4.28;;;;;;;-3.29;100.00;97219.94;5067724;28;20028;-67
2024/01/22 03:54:19;;;;;;;6.35;5.53;;;;;;;-3.24;100.00;97220.72;5068121;28;20846;-67
2024/01/22 03:56:45;;;;;;;7.72;5.15;;;;;;;-3.28;100.00;97225.94;5073900;28;20032;-67
2024/01/22 03:59:11;;;;;;;5.38;4.97;;;;;;;-3.33;100.00;97226.84;5069912;28;20067;-67
2024/01/22 04:01:36;;;;;;;4.78;4.38;;;;;;;-3.31;100.00;97239.72;5064240;28;20037;-67
2024/01/22 04:04:01;;;;;;;33.10;21.95;;;;;;;-3.28;100.00;97238.84;5072171;28;20036;-67
2024/01/22 04:06:27;;;;;;;14.43;11.55;;;;;;;-3.21;100.00;97249.03;5063209;28;20070;-67
2024/01/22 04:08:52;;;;;;;6.70;6.15;;;;;;;-3.22;100.00;97255.03;5064136;28;20088;-68
2024/01/22 04:11:17;;;;;;;8.40;7.60;;;;;;;-3.20;100.00;97252.47;5068149;28;20025;-67
2024/01/22 04:13:43;;;;;;;6.93;6.25;;;;;;;-3.20;100.00;97248.19;5066064;28;20508;-68
2024/01/22 04:16:13;;;;;;;7.97;6.57;;;;;;;-3.21;100.00;97250.75;5073637;28;20084;-67
2024/01/22 04:18:42;;;;;;;16.00;10.98;;;;;;;-3.21;100.00;97249.03;5071298;28;20033;-67
2024/01/22 04:21:08;;;;;;;13.95;11.30;;;;;;;-3.22;100.00;97249.88;5072356;28;20043;-67
2024/01/22 04:23:34;;;;;;;10.95;8.27;;;;;;;-3.20;100.00;97252.47;5068529;28;20111;-67
2024/01/22 04:26:04;;;;;;;8.82;7.22;;;;;;;-3.21;100.00;97249.03;5072450;28;20024;-67
2024/01/22 04:28:29;;;;;;;13.32;9.95;;;;;;;-3.18;100.00;97245.56;5073775;28;20040;-67
2024/01/22 04:30:55;;;;;;;18.90;15.57;;;;;;;-3.12;100.00;97244.63;5071330;28;20021;-67
2024/01/22 04:33:20;;;;;;;12.18;10.90;;;;;;;-3.08;100.00;97254.91;5077396;28;20032;-68
2024/01/22 04:35:46;;;;;;;21.30;15.77;;;;;;;-2.96;100.00;97246.16;5070065;28;20032;-68
2024/01/22 04:38:11;;;;;;;10.02;8.52;;;;;;;-2.82;100.00;97239.94;5071629;28;20078;-67
2024/01/22 04:40:37;;;;;;;17.83;13.15;;;;;;;-2.72;100.00;97240.66;5067133;28;20036;-67
2024/01/22 04:43:03;;;;;;;13.20;10.68;;;;;;;-2.68;100.00;97235.44;5066547;28;20417;-67
2024/01/22 04:45:29;;;;;;;9.82;8.77;;;;;;;-2.59;100.00;97239.63;5068308;28;20096;-67
2024/01/22 04:47:54;;;;;;;8.82;7.93;;;;;;;-2.55;100.00;97238.69;5072551;28;20063;-67
2024/01/22 04:50:19;;;;;;;9.07;8.00;;;;;;;-2.51;100.00;97242.09;5072184;28;20016;-67
2024/01/22 04:52:45;;;;;;;7.80;7.00;;;;;;;-2.45;100.00;97249.72;5071328;28;20053;-67
2024/01/22 04:55:10;;;;;;;8.85;8.07;;;;;;;-2.39;100.00;97248.78;5070502;28;20047;-67
2024/01/22 04:57:36;;;;;;;6.65;5.82;;;;;;;-2.06;100.00;97252.53;5071105;28;20461;-67
2024/01/22 05:00:02;;;;;;;7.40;6.70;;;;;;;-2.16;100.00;97246.69;5068485;28;20028;-67
2024/01/22 05:02:27;;;;;;;6.05;5.53;;;;;;;-2.17;100.00;97242.38;5067396;28;20024;-67
2024/01/22 05:04:59;;;;;;;8.60;7.32;;;;;;;-2.18;100.00;97235.53;5071748;28;20528;-68
2024/01/22 05:07:24;;;;;;;11.85;8.75;;;;;;;-2.16;100.00;97222.59;5071329;28;20454;-67
2024/01/22 05:09:59;;;;;;;12.45;9.68;;;;;;;-2.11;100.00;97225.94;5065843;28;20051;-67
2024/01/22 05:12:25;;;;;;;12.18;9.10;;;;;;;-2.05;100.00;97223.25;5067826;28;20108;-67
2024/01/22 05:14:51;;;;;;;11.25;10.15;;;;;;;-2.04;100.00;97232.72;5068294;28;20028;-67
2024/01/22 05:17:16;;;;;;;9.55;8.75;;;;;;;-2.00;100.00;97242.97;5086525;28;20366;-68
2024/01/22 05:19:42;;;;;;;9.75;8.85;;;;;;;-2.04;100.00;97250.78;5076004;28;20055;-68
2024/01/22 05:22:07;;;;;;;11.20;9.98;;;;;;;-2.08;100.00;97251.72;5072929;28;20477;-67
2024/01/22 05:24:33;;;;;;;11.65;10.48;;;;;;;-2.13;100.00;97265.56;5068253;28;20016;-68
2024/01/22 05:26:58;;;;;;;17.40;13.30;;;;;;;-2.18;100.00;97279.41;5068862;28;20119;-68
2024/01/22 05:29:24;;;;;;;9.15;7.85;;;;;;;-2.22;100.00;97287.22;5065279;28;20063;-67
2024/01/22 05:31:50;;;;;;;6.70;5.75;;;;;;;-2.21;100.00;97284.63;5066974;28;20025;-67
2024/01/22 05:34:15;;;;;;;15.38;12.88;;;;;;;-2.17;100.00;97291.44;5080245;28;20028;-67
2024/01/22 05:36:42;;;;;;;14.25;12.85;;;;;;;-2.16;100.00;97289.69;5076098;28;20620;-67
2024/01/22 05:39:08;;;;;;;12.45;11.25;;;;;;;-2.25;100.00;97285.50;5073400;28;20035;-67
2024/01/22 05:41:33;;;;;;;10.88;9.77;;;;;;;-2.34;100.00;97286.50;5071402;28;20135;-67
2024/01/22 05:43:59;;;;;;;8.63;7.93;;;;;;;-2.41;100.00;97279.75;5069099;28;20016;-67
2024/01/22 05:46:24;;;;;;;8.05;7.35;;;;;;;-2.40;100.00;97283.19;5075289;28;20059;-67
2024/01/22 05:48:50;;;;;;;6.32;5.72;;;;;;;-2.40;100.00;97272.88;5069284;28;20024;-68
2024/01/22 05:51:15;;;;;;;5.75;4.72;;;;;;;-2.35;100.00;97274.47;5071771;28;20549;-67
2024/01/22 05:53:41;;;;;;;6.13;5.53;;;;;;;-2.26;100.00;97259.75;5070792;28;20831;-67
2024/01/22 05:56:06;;;;;;;8.30;6.40;;;;;;;-2.18;100.00;97250.16;5073536;28;20095;-67
2024/01/22 05:58:32;;;;;;;8.82;7.30;;;;;;;-2.10;100.00;97245.72;5063224;28;20028;-67
2024/01/22 06:00:57;;;;;;;10.52;9.05;;;;;;;-2.05;100.00;97230.13;5064315;28;20028;-67
2024/01/22 06:03:23;;;;;;;13.35;12.05;;;;;;;-2.00;100.00;97230.91;5066277;28;20125;-68
2024/01/22 06:05:48;;;;;;;15.60;14.10;;;;;;;-1.93;100.00;97229.06;5070136;28;20060;-68
2024/01/22 06:08:13;;;;;;;11.85;10.70;;;;;;;-1.89;100.00;97225.56;5072621;28;20031;-68
2024/01/22 06:10:39;;;;;;;9.70;8.77;;;;;;;-1.88;100.00;97227.25;5068646;28;20035;-67
2024/01/22 06:13:04;;;;;;;11.60;10.60;;;;;;;-1.83;100.00;97222.88;5069761;28;20573;-68
2024/01/22 06:15:30;;;;;;;11.68;10.52;;;;;;;-1.66;100.00;97219.09;5070478;28;20038;-68
2024/01/22 06:17:55;;;;;;;12.43;11.05;;;;;;;-1.63;100.00;97230.25;5068917;28;20017;-68
2024/01/22 06:20:20;;;;;;;13.38;12.15;;;;;;;-1.63;100.00;97230.25;5078665;28;20020;-68
2024/01/22 06:22:46;;;;;;;14.13;12.77;;;;;;;-1.63;100.00;97235.41;5068183;28;20032;-68
2024/01/22 06:25:11;;;;;;;14.57;13.20;;;;;;;-1.60;100.00;97231.94;5077614;28;20405;-68
2024/01/22 06:27:37;;;;;;;12.32;11.23;;;;;;;-1.59;100.00;97229.31;5067591;28;20091;-68
2024/01/22 06:30:03;;;;;;;13.60;12.07;;;;;;;-1.53;100.00;97230.09;5072439;28;20121;-68
2024/01/22 06:32:29;;;;;;;13.15;11.85;;;;;;;-1.51;100.00;97230.91;5073425;28;20032;-68
2024/01/22 06:34:54;;;;;;;16.00;14.48;;;;;;;-1.50;100.00;97235.19;5068966;28;20093;-68
2024/01/22 06:37:23;;;;;;;30.85;27.50;;;;;;;-1.51;100.00;97234.31;5069244;28;20185;-68
2024/01/22 06:39:49;;;;;;;25.45;21.67;;;;;;;-1.49;100.00;97237.72;5073139;28;20035;-68
2024/01/22 06:42:15;;;;;;;22.58;19.38;;;;;;;-1.45;100.00;97233.34;5070461;28;20052;-68
2024/01/22 06:44:40;;;;;;;21.65;19.40;;;;;;;-1.47;100.00;97229.97;5065852;28;20210;-68
2024/01/22 06:47:05;;;;;;;22.05;18.73;;;;;;;-1.46;100.00;97222.16;5068154;28;20024;-68
2024/01/22 06:49:31;;;;;;;18.58;16.60;;;;;;;-1.43;100.00;97215.25;5067004;28;20028;-69
2024/01/22 06:51:57;;;;;;;16.02;14.23;;;;;;;-1.41;100.00;97223.81;5073187;28;20071;-68
2024/01/22 06:54:22;;;;;;;14.07;12.65;;;;;;;-1.37;100.00;97228.88;5073668;28;20158;-69
2024/01/22 06:56:47;;;;;;;39.20;35.10;;;;;;;-1.32;100.00;97231.38;5065134;28;20060;-71
2024/01/22 06:59:13;;;;;;;27.27;24.67;;;;;;;-1.30;100.00;97234.78;5068509;28;20024;-68
2024/01/22 07:01:38;;;;;;;24.20;21.73;;;;;;;-1.29;100.00;97228.72;5061823;28;20115;-68
2024/01/22 07:04:04;;;;;;;15.15;13.55;;;;;;;-1.32;100.00;97232.25;5073121;28;20124;-67
2024/01/22 07:06:29;;;;;;;13.88;12.48;;;;;;;-1.33;100.00;97235.72;5066053;28;20028;-68
2024/01/22 07:08:54;;;;;;;13.48;12.13;;;;;;;-1.33;100.00;97219.34;5068764;28;20107;-68
2024/01/22 07:11:20;;;;;;;15.85;14.27;;;;;;;-1.27;100.00;97226.97;5066364;28;20078;-67
2024/01/22 07:13:45;;;;;;;21.67;19.48;;;;;;;-1.23;100.00;97218.25;5067350;28;20071;-69
2024/01/22 07:16:11;;;;;;;18.35;14.70;;;;;;;-1.18;100.00;97216.44;5066362;28;20521;-68
2024/01/22 07:18:37;;;;;;;15.35;13.82;;;;;;;-1.14;100.00;97206.88;5065608;28;20024;-68
2024/01/22 07:21:02;;;;;;;15.82;14.20;;;;;;;-1.13;100.00;97212.91;5063336;28;20116;-68
2024/01/22 07:23:28;;;;;;;15.68;14.18;;;;;;;-1.13;100.00;97212.91;5063970;28;20489;-68
2024/01/22 07:25:56;;;;;;;15.57;13.70;;;;;;;-1.11;100.00;97229.25;5064307;28;20106;-69
2024/01/22 07:28:22;;;;;;;14.80;13.35;;;;;;;-1.08;100.00;97231.75;5064047;28;20024;-68
2024/01/22 07:30:47;;;;;;;13.80;12.32;;;;;;;-0.95;100.00;97230.63;5068046;28;20057;-68
2024/01/22 07:33:12;;;;;;;16.58;13.27;;;;;;;-0.93;100.00;97236.59;5067580;28;20025;-68
2024/01/22 07:35:38;;;;;;;26.60;20.25;;;;;;;-0.93;100.00;97239.19;5060241;28;20089;-69
2024/01/22 07:38:05;;;;;;;20.90;18.70;;;;;;;-0.92;100.00;97240.03;5066517;28;20032;-68
2024/01/22 07:40:30;;;;;;;33.47;21.48;;;;;;;-0.88;100.00;97246.88;5069282;28;20043;-68
2024/01/22 07:42:56;;;;;;;25.90;22.73;;;;;;;-0.87;100.00;97243.38;5064877;28;20470;-69
2024/01/22 07:45:21;;;;;;;25.50;22.75;;;;;;;-0.88;100.00;97250.28;5069108;28;20033;-68
2024/01/22 07:47:47;;;;;;;26.33;23.55;;;;;;;-0.87;100.00;97251.16;5065939;28;20060;-68
2024/01/22 07:50:14;;;;;;;23.50;19.13;;;;;;;-0.81;100.00;97247.56;5064202;28;20067;-68
2024/01/22 07:52:41;;;;;;;19.20;16.83;;;;;;;-0.78;100.00;97253.53;5069151;28;20029;-69
2024/01/22 07:55:08;;;;;;;23.88;21.65;;;;;;;-0.73;100.00;97258.59;5067461;28;20055;-68
2024/01/22 07:57:34;;;;;;;21.20;19.20;;;;;;;-0.67;100.00;97270.53;5063499;28;20060;-68
2024/01/22 07:59:59;;;;;;;18.17;16.17;;;;;;;-0.63;100.00;97273.03;5075891;28;20028;-68
2024/01/22 08:02:25;;;;;;;23.38;19.85;;;;;;;-0.56;100.00;97273.75;5066349;28;20048;-68
2024/01/22 08:04:51;;;;;;;19.02;17.17;;;;;;;-0.42;100.00;97273.41;5071278;28;20032;-69
2024/01/22 08:07:17;;;;;;;20.42;18.30;;;;;;;-0.30;100.00;97277.47;5073119;28;20544;-68
2024/01/22 08:09:43;;;;;;;20.55;17.25;;;;;;;-0.30;100.00;97277.47;5072244;28;20032;-68
2024/01/22 08:12:08;;;;;;;19.65;17.60;;;;;;;-0.27;100.00;97277.38;5069234;28;20023;-68
2024/01/22 08:14:34;;;;;;;23.90;21.50;;;;;;;-0.18;100.00;97281.50;5069762;28;20060;-68
2024/01/22 08:17:01;;;;;;;22.50;20.25;;;;;;;-0.13;100.00;97277.06;5067931;28;20028;-68
2024/01/22 08:19:27;;;;;;;21.25;18.42;;;;;;;-0.07;100.00;97269.16;5067299;28;20030;-69
2024/01/22 08:21:53;;;;;;;20.95;17.40;;;;;;;-0.05;100.00;97266.50;5069272;28;20032;-69
2024/01/22 08:24:19;;;;;;;18.52;16.55;;;;;;;0.05;100.00;97259.38;5065586;28;20035;-68
2024/01/22 08:26:45;;;;;;;17.67;15.38;;;;;;;0.12;100.00;97248.81;5063246;28;20025;-69
2024/01/22 08:29:10;;;;;;;16.67;14.88;;;;;;;0.30;100.00;97246.66;5066321;28;20588;-69
2024/01/22 08:31:36;;;;;;;17.05;15.15;;;;;;;0.38;100.00;97233.50;5071042;28;20023;-69
2024/01/22 08:34:02;;;;;;;16.23;14.57;;;;;;;0.36;100.00;97240.47;5069250;28;20664;-69
2024/01/22 08:36:28;;;;;;;15.75;14.15;;;;;;;0.38;100.00;97247.28;5069123;28;20025;-68
2024/01/22 08:38:54;;;;;;;18.20;16.05;;;;;;;0.44;100.00;97256.66;5063148;28;20718;-69
2024/01/22 08:41:21;;;;;;;21.98;19.77;;;;;;;0.48;100.00;97271.22;5066472;28;20060;-69
2024/01/22 08:43:46;;;;;;;20.95;18.92;;;;;;;0.47;100.00;97279.88;5071456;28;20875;-68
2024/01/22 08:46:12;;;;;;;21.77;19.60;;;;;;;0.46;100.00;97296.31;5062887;28;20090;-69
2024/01/22 08:48:37;;;;;;;26.02;23.30;;;;;;;0.40;100.00;97312.03;5066520;28;20032;-68
2024/01/22 08:51:02;;;;;;;31.08;27.20;;;;;;;0.69;100.00;97313.00;5068495;28;20469;-68
2024/01/22 08:53:28;;;;;;;27.42;22.25;;;;;;;0.66;100.00;97324.34;5064370;28;20020;-69
2024/01/22 08:55:53;;;;;;;22.65;20.27;;;;;;;0.65;100.00;97314.00;5066262;28;20067;-69
2024/01/22 08:58:19;;;;;;;18.92;17.05;;;;;;;0.61;100.00;97304.59;5070246;28;20401;-68
2024/01/22 09:00:44;;;;;;;16.73;14.93;;;;;;;0.60;100.00;97293.38;5070582;28;20028;-68
2024/01/22 09:03:09;;;;;;;17.27;14.93;;;;;;;0.58;100.00;97302.94;5069014;28;20024;-69
2024/01/22 09:05:35;;;;;;;15.85;13.77;;;;;;;0.57;100.00;97306.41;5066233;28;20155;-69
2024/01/22 09:08:00;;;;;;;20.35;17.73;;;;;;;0.58;100.00;97308.09;5069792;28;20688;-68
2024/01/22 09:10:26;;;;;;;20.63;18.42;;;;;;;0.57;100.00;97309.88;5067724;28;20047;-68
2024/01/22 09:12:54;;;;;;;23.67;20.85;;;;;;;0.56;100.00;97310.75;5062318;28;20017;-69
2024/01/22 09:15:20;;;;;;;24.55;21.85;;;;;;;0.55;100.00;97315.97;5069000;28;20040;-69
2024/01/22 09:17:46;;;;;;;24.17;21.60;;;;;;;0.54;100.00;97317.69;5068586;28;20580;-68
2024/01/22 09:20:12;;;;;;;19.27;17.27;;;;;;;0.59;100.00;97320.19;5070057;28;20432;-68
2024/01/22 09:22:38;;;;;;;19.83;17.80;;;;;;;0.66;100.00;97326.06;5068114;28;20583;-68
2024/01/22 09:25:05;;;;;;;14.45;13.05;;;;;;;0.94;100.00;97327.91;5068864;28;20024;-68
2024/01/22 09:27:31;;;;;;;14.32;12.48;;;;;;;1.50;100.00;97327.16;5070502;28;20025;-69
2024/01/22 09:29:56;;;;;;;23.38;17.92;;;;;;;1.92;100.00;97320.72;5065229;28;20040;-69
2024/01/22 09:32:21;;;;;;;21.98;18.77;;;;;;;2.30;100.00;97320.38;5064843;28;20023;-69
2024/01/22 09:34:47;;;;;;;17.38;13.52;;;;;;;2.65;100.00;97320.94;5060960;28;20167;-68
2024/01/22 09:37:12;;;;;;;24.27;19.02;;;;;;;2.95;100.00;97327.72;5069128;28;20143;-69
2024/01/22 09:39:38;;;;;;;19.30;15.52;;;;;;;3.10;100.00;97316.75;5067872;28;20036;-69
2024/01/22 09:42:05;;;;;;;13.68;11.73;;;;;;;3.41;100.00;97310.41;5072750;28;20412;-69
2024/01/22 09:44:31;;;;;;;17.90;12.25;;;;;;;3.68;100.00;97299.00;5067103;28;20104;-69
2024/01/22 09:46:57;;;;;;;18.92;14.02;;;;;;;3.81;100.00;97273.31;5067424;28;20794;-69
2024/01/22 09:49:23;;;;;;;13.90;11.88;;;;;;;3.80;100.00;97255.97;5067045;28;20028;-69
2024/01/22 09:51:50;;;;;;;16.00;12.88;;;;;;;3.99;100.00;97256.94;5069316;28;20024;-69
2024/01/22 09:54:23;;;;;;;12.07;10.50;;;;;;;4.08;100.00;97226.19;5064428;28;20036;-69
2024/01/22 09:56:53;;;;;;;14.85;12.07;;;;;;;4.21;100.00;97198.69;5063007;28;20031;-69
2024/01/22 09:59:20;;;;;;;8.85;7.88;;;;;;;4.46;100.00;97171.56;5066063;28;20016;-69
2024/01/22 10:01:50;;;;;;;6.25;5.35;;;;;;;4.73;100.00;97176.44;5071633;28;20031;-69
2024/01/22 10:04:17;;;;;;;4.15;3.85;;;;;;;4.72;100.00;97164.31;5068100;28;20023;-69
2024/01/22 10:06:44;;;;;;;3.92;3.67;;;;;;;4.82;100.00;97157.78;5069512;28;20066;-69
2024/01/22 10:09:10;;;;;;;3.97;3.58;;;;;;;4.81;100.00;97148.28;5060951;28;20077;-70
2024/01/22 10:11:36;;;;;;;4.00;3.63;;;;;;;4.75;100.00;97156.34;5068987;28;20029;-69
2024/01/22 10:14:02;;;;;;;5.95;5.38;;;;;;;4.84;100.00;97140.28;5064344;28;20025;-69
2024/01/22 10:16:31;;;;;;;7.22;6.53;;;;;;;5.11;100.00;97144.31;5070325;28;20500;-70
2024/01/22 10:19:05;;;;;;;6.47;5.88;;;;;;;5.36;100.00;97143.97;5080626;28;20032;-69
2024/01/22 10:21:31;;;;;;;16.70;14.85;;;;;;;5.49;100.00;97135.53;5066788;28;20614;-70
2024/01/22 10:23:59;;;;;;;4.63;4.20;;;;;;;5.44;100.00;97133.16;5075064;28;20045;-69
2024/01/22 10:26:25;;;;;;;6.82;6.07;;;;;;;5.29;100.00;97142.56;5067022;28;20032;-69
2024/01/22 10:28:51;;;;;;;5.35;4.82;;;;;;;5.22;100.00;97147.25;5073525;28;20103;-69
2024/01/22 10:31:17;;;;;;;6.03;3.47;;;;;;;5.10;100.00;97158.28;5069262;28;20587;-69
2024/01/22 10:33:42;;;;;;;17.05;13.60;;;;;;;5.08;100.00;97160.94;5064395;28;20142;-69
2024/01/22 10:36:19;;;;;;;44.08;34.97;;;;;;;5.15;100.00;97174.56;5074267;28;20146;-69
2024/01/22 10:38:47;;;;;;;24.67;21.52;;;;;;;5.19;100.00;97172.63;5070408;28;20040;-69
2024/01/22 10:41:17;;;;;;;36.80;30.38;;;;;;;5.28;100.00;97172.22;5066733;28;20056;-69
2024/01/22 10:43:43;;;;;;;103.80;84.13;;;;;;;5.41;100.00;97177.72;5070683;28;20596;-70
2024/01/22 10:46:11;;;;;;;11.15;10.10;;;;;;;5.49;100.00;97159.88;5069543;28;20028;-69
2024/01/22 10:48:38;;;;;;;14.98;11.60;;;;;;;5.58;100.00;97141.16;5075866;28;20036;-69
2024/01/22 10:51:05;;;;;;;19.13;17.05;;;;;;;5.67;100.00;97126.81;5070221;28;20832;-69
2024/01/22 10:53:32;;;;;;;10.02;8.02;;;;;;;5.73;100.00;97116.03;5067781;28;20028;-68
2024/01/22 10:56:05;;;;;;;12.60;11.40;;;;;;;5.65;100.00;97112.97;5067261;28;20771;-69
2024/01/22 10:58:41;;;;;;;6.65;6.07;;;;;;;5.54;100.00;97104.81;5067802;28;20036;-70
2024/01/22 11:01:17;;;;;;;51.70;41.78;;;;;;;5.54;100.00;97096.97;5067045;28;20024;-69
2024/01/22 11:03:50;;;;;;;34.97;25.98;;;;;;;5.43;100.00;97100.97;5064640;28;20033;-69
2024/01/22 11:06:18;;;;;;;20.90;16.67;;;;;;;5.37;100.00;97097.81;5065673;28;20400;-70
2024/01/22 11:08:48;;;;;;;13.75;12.27;;;;;;;5.33;100.00;97086.66;5064235;28;20074;-70
2024/01/22 11:11:16;;;;;;;10.38;7.93;;;;;;;5.39;100.00;97081.13;5065378;28;20461;-70